sensor_id;sensor_type;location;lat;lon;timestamp;temperature;humidity
68842;SHT35;55849;48.482;2.332;2023-06-22T04:23:25;23.12;76.46
68842;SHT35;55849;48.482;2.332;2023-06-22T04:26:27;23.13;75.33
68842;SHT35;55849;48.482;2.332;2023-06-22T04:29:29;23.10;75.79
68842;SHT35;55849;48.482;2.332;2023-06-22T04:32:30;23.07;74.53
68842;SHT35;55849;48.482;2.332;2023-06-22T04:35:32;23.05;75.03
68842;SHT35;55849;48.482;2.332;2023-06-22T04:38:35;23.03;77.04
68842;SHT35;55849;48.482;2.332;2023-06-22T04:41:37;22.99;76.76
68842;SHT35;55849;48.482;2.332;2023-06-22T04:44:45;23.00;76.58
68842;SHT35;55849;48.482;2.332;2023-06-22T04:47:47;22.98;75.98
68842;SHT35;55849;48.482;2.332;2023-06-22T04:50:48;22.96;76.16
68842;SHT35;55849;48.482;2.332;2023-06-22T04:53:51;22.94;75.30
68842;SHT35;55849;48.482;2.332;2023-06-22T04:57:01;22.96;77.22
68842;SHT35;55849;48.482;2.332;2023-06-22T05:00:03;22.92;76.35
68842;SHT35;55849;48.482;2.332;2023-06-22T05:03:13;22.92;75.92
68842;SHT35;55849;48.482;2.332;2023-06-22T05:06:18;22.88;76.50
68842;SHT35;55849;48.482;2.332;2023-06-22T05:09:21;22.88;75.07
68842;SHT35;55849;48.482;2.332;2023-06-22T05:12:24;22.82;75.20
68842;SHT35;55849;48.482;2.332;2023-06-22T05:15:25;22.81;75.30
68842;SHT35;55849;48.482;2.332;2023-06-22T05:18:31;22.79;75.70
68842;SHT35;55849;48.482;2.332;2023-06-22T05:21:33;22.78;77.33
68842;SHT35;55849;48.482;2.332;2023-06-22T05:24:36;22.73;75.48
68842;SHT35;55849;48.482;2.332;2023-06-22T05:27:37;22.73;75.58
68842;SHT35;55849;48.482;2.332;2023-06-22T05:30:40;22.68;78.14
68842;SHT35;55849;48.482;2.332;2023-06-22T05:33:43;22.69;78.13
68842;SHT35;55849;48.482;2.332;2023-06-22T05:36:45;22.67;75.78
68842;SHT35;55849;48.482;2.332;2023-06-22T05:39:48;22.65;77.84
68842;SHT35;55849;48.482;2.332;2023-06-22T05:42:50;22.62;77.66
68842;SHT35;55849;48.482;2.332;2023-06-22T05:45:51;22.60;76.70
68842;SHT35;55849;48.482;2.332;2023-06-22T05:48:53;22.58;77.37
68842;SHT35;55849;48.482;2.332;2023-06-22T05:51:55;22.57;77.97
68842;SHT35;55849;48.482;2.332;2023-06-22T05:54:58;22.53;78.62
68842;SHT35;55849;48.482;2.332;2023-06-22T05:58:00;22.54;77.99
68842;SHT35;55849;48.482;2.332;2023-06-22T06:01:01;22.51;78.22
68842;SHT35;55849;48.482;2.332;2023-06-22T06:04:03;22.51;77.84
68842;SHT35;55849;48.482;2.332;2023-06-22T06:07:05;22.48;78.01
68842;SHT35;55849;48.482;2.332;2023-06-22T06:10:09;22.48;77.71
68842;SHT35;55849;48.482;2.332;2023-06-22T06:13:10;22.48;77.54
68842;SHT35;55849;48.482;2.332;2023-06-22T06:16:12;22.45;78.38
68842;SHT35;55849;48.482;2.332;2023-06-22T06:19:14;22.47;79.02
68842;SHT35;55849;48.482;2.332;2023-06-22T06:22:16;22.44;79.87
68842;SHT35;55849;48.482;2.332;2023-06-22T06:25:20;22.45;79.55
68842;SHT35;55849;48.482;2.332;2023-06-22T06:28:24;22.43;80.09
68842;SHT35;55849;48.482;2.332;2023-06-22T06:31:26;22.41;79.51
68842;SHT35;55849;48.482;2.332;2023-06-22T06:34:28;22.39;79.46
68842;SHT35;55849;48.482;2.332;2023-06-22T06:37:30;22.39;78.66
68842;SHT35;55849;48.482;2.332;2023-06-22T06:40:33;22.37;80.09
68842;SHT35;55849;48.482;2.332;2023-06-22T06:43:35;22.34;79.49
68842;SHT35;55849;48.482;2.332;2023-06-22T06:46:36;22.34;79.37
68842;SHT35;55849;48.482;2.332;2023-06-22T06:49:38;22.32;79.20
68842;SHT35;55849;48.482;2.332;2023-06-22T06:52:40;22.32;78.82
68842;SHT35;55849;48.482;2.332;2023-06-22T06:55:43;22.27;79.43
68842;SHT35;55849;48.482;2.332;2023-06-22T06:58:45;22.27;79.70
68842;SHT35;55849;48.482;2.332;2023-06-22T07:01:47;22.26;78.87
68842;SHT35;55849;48.482;2.332;2023-06-22T07:04:49;22.20;79.26
68842;SHT35;55849;48.482;2.332;2023-06-22T07:07:50;22.21;80.03
68842;SHT35;55849;48.482;2.332;2023-06-22T07:10:55;22.20;80.90
68842;SHT35;55849;48.482;2.332;2023-06-22T07:13:56;22.20;79.42
68842;SHT35;55849;48.482;2.332;2023-06-22T07:16:58;22.20;81.08
68842;SHT35;55849;48.482;2.332;2023-06-22T07:20:00;22.21;80.89
68842;SHT35;55849;48.482;2.332;2023-06-22T07:23:02;22.21;80.56
68842;SHT35;55849;48.482;2.332;2023-06-22T07:26:05;22.23;80.62
68842;SHT35;55849;48.482;2.332;2023-06-22T07:29:07;22.21;80.82
68842;SHT35;55849;48.482;2.332;2023-06-22T07:32:08;22.19;79.85
68842;SHT35;55849;48.482;2.332;2023-06-22T07:35:10;22.21;80.08
68842;SHT35;55849;48.482;2.332;2023-06-22T07:38:12;22.20;80.13
68842;SHT35;55849;48.482;2.332;2023-06-22T07:41:16;22.21;80.64
68842;SHT35;55849;48.482;2.332;2023-06-22T07:44:19;22.20;80.39
68842;SHT35;55849;48.482;2.332;2023-06-22T07:47:21;22.19;80.15
68842;SHT35;55849;48.482;2.332;2023-06-22T07:50:25;22.17;80.47
68842;SHT35;55849;48.482;2.332;2023-06-22T07:53:27;22.19;80.33
68842;SHT35;55849;48.482;2.332;2023-06-22T07:56:30;22.16;79.98
68842;SHT35;55849;48.482;2.332;2023-06-22T07:59:32;22.16;80.98
68842;SHT35;55849;48.482;2.332;2023-06-22T08:02:34;22.16;79.97
68842;SHT35;55849;48.482;2.332;2023-06-22T08:05:35;22.16;80.52
68842;SHT35;55849;48.482;2.332;2023-06-22T08:08:37;22.14;80.43
68842;SHT35;55849;48.482;2.332;2023-06-22T08:11:40;22.17;79.69
68842;SHT35;55849;48.482;2.332;2023-06-22T08:14:42;22.19;80.98
68842;SHT35;55849;48.482;2.332;2023-06-22T08:17:45;22.19;80.29
68842;SHT35;55849;48.482;2.332;2023-06-22T08:20:46;22.16;80.46
68842;SHT35;55849;48.482;2.332;2023-06-22T08:23:48;22.16;80.49
68842;SHT35;55849;48.482;2.332;2023-06-22T08:26:51;22.17;80.03
68842;SHT35;55849;48.482;2.332;2023-06-22T08:29:53;22.17;81.34
68842;SHT35;55849;48.482;2.332;2023-06-22T08:32:58;22.21;81.12
68842;SHT35;55849;48.482;2.332;2023-06-22T08:36:00;22.20;80.63
68842;SHT35;55849;48.482;2.332;2023-06-22T08:39:01;22.21;81.00
68842;SHT35;55849;48.482;2.332;2023-06-22T08:42:05;22.23;81.19
68842;SHT35;55849;48.482;2.332;2023-06-22T08:45:08;22.23;80.34
68842;SHT35;55849;48.482;2.332;2023-06-22T08:48:13;22.24;80.48
68842;SHT35;55849;48.482;2.332;2023-06-22T08:51:15;22.23;80.58
68842;SHT35;55849;48.482;2.332;2023-06-22T08:54:16;22.24;80.25
68842;SHT35;55849;48.482;2.332;2023-06-22T08:57:20;22.24;80.63
68842;SHT35;55849;48.482;2.332;2023-06-22T09:00:22;22.29;80.92
68842;SHT35;55849;48.482;2.332;2023-06-22T09:03:23;22.27;81.06
68842;SHT35;55849;48.482;2.332;2023-06-22T09:06:26;22.30;80.81
68842;SHT35;55849;48.482;2.332;2023-06-22T09:09:28;22.32;80.84
68842;SHT35;55849;48.482;2.332;2023-06-22T09:12:32;22.34;81.99
68842;SHT35;55849;48.482;2.332;2023-06-22T09:15:34;22.37;81.06
68842;SHT35;55849;48.482;2.332;2023-06-22T09:18:35;22.39;80.69
68842;SHT35;55849;48.482;2.332;2023-06-22T09:21:37;22.40;81.05
68842;SHT35;55849;48.482;2.332;2023-06-22T09:24:39;22.41;81.33
68842;SHT35;55849;48.482;2.332;2023-06-22T09:27:42;22.43;80.96
68842;SHT35;55849;48.482;2.332;2023-06-22T09:30:44;22.44;80.57
68842;SHT35;55849;48.482;2.332;2023-06-22T09:33:45;22.48;81.25
68842;SHT35;55849;48.482;2.332;2023-06-22T09:36:47;22.50;81.21
68842;SHT35;55849;48.482;2.332;2023-06-22T09:39:49;22.48;81.26
68842;SHT35;55849;48.482;2.332;2023-06-22T09:42:52;22.53;81.09
68842;SHT35;55849;48.482;2.332;2023-06-22T09:45:53;22.50;80.20
68842;SHT35;55849;48.482;2.332;2023-06-22T09:48:55;22.53;80.41
68842;SHT35;55849;48.482;2.332;2023-06-22T09:51:57;22.55;81.19
68842;SHT35;55849;48.482;2.332;2023-06-22T09:54:58;22.57;81.45
68842;SHT35;55849;48.482;2.332;2023-06-22T09:58:01;22.57;80.46
68842;SHT35;55849;48.482;2.332;2023-06-22T10:01:03;22.60;80.53
68842;SHT35;55849;48.482;2.332;2023-06-22T10:04:04;22.62;80.74
68842;SHT35;55849;48.482;2.332;2023-06-22T10:07:06;22.65;80.92
68842;SHT35;55849;48.482;2.332;2023-06-22T10:10:08;22.68;81.03
68842;SHT35;55849;48.482;2.332;2023-06-22T10:13:11;22.73;81.02
68842;SHT35;55849;48.482;2.332;2023-06-22T10:16:13;22.76;80.73
68842;SHT35;55849;48.482;2.332;2023-06-22T10:19:14;22.78;80.90
68842;SHT35;55849;48.482;2.332;2023-06-22T10:22:16;22.82;81.22
68842;SHT35;55849;48.482;2.332;2023-06-22T10:25:18;22.84;80.72
68842;SHT35;55849;48.482;2.332;2023-06-22T10:28:21;22.89;80.33
68842;SHT35;55849;48.482;2.332;2023-06-22T10:31:22;22.89;81.65
68842;SHT35;55849;48.482;2.332;2023-06-22T10:34:24;22.95;81.00
68842;SHT35;55849;48.482;2.332;2023-06-22T10:37:26;22.98;80.78
68842;SHT35;55849;48.482;2.332;2023-06-22T10:40:27;23.00;80.54
68842;SHT35;55849;48.482;2.332;2023-06-22T10:43:30;23.03;80.07
68842;SHT35;55849;48.482;2.332;2023-06-22T10:46:32;23.06;80.12
68842;SHT35;55849;48.482;2.332;2023-06-22T10:49:33;23.10;80.71
68842;SHT35;55849;48.482;2.332;2023-06-22T10:52:36;23.12;80.21
68842;SHT35;55849;48.482;2.332;2023-06-22T10:55:38;23.17;80.48
68842;SHT35;55849;48.482;2.332;2023-06-22T10:58:41;23.17;80.10
68842;SHT35;55849;48.482;2.332;2023-06-22T11:01:42;23.21;80.49
68842;SHT35;55849;48.482;2.332;2023-06-22T11:04:44;23.23;78.82
68842;SHT35;55849;48.482;2.332;2023-06-22T11:07:46;23.26;79.99
68842;SHT35;55849;48.482;2.332;2023-06-22T11:10:51;23.26;79.78
68842;SHT35;55849;48.482;2.332;2023-06-22T11:13:54;23.27;78.99
68842;SHT35;55849;48.482;2.332;2023-06-22T11:16:55;23.27;79.47
68842;SHT35;55849;48.482;2.332;2023-06-22T11:19:57;23.34;79.91
68842;SHT35;55849;48.482;2.332;2023-06-22T11:23:00;23.36;78.94
68842;SHT35;55849;48.482;2.332;2023-06-22T11:26:02;23.37;80.40
68842;SHT35;55849;48.482;2.332;2023-06-22T11:29:05;23.37;78.92
68842;SHT35;55849;48.482;2.332;2023-06-22T11:32:07;23.41;79.51
68842;SHT35;55849;48.482;2.332;2023-06-22T11:35:09;23.41;79.61
68842;SHT35;55849;48.482;2.332;2023-06-22T11:38:10;23.44;79.29
68842;SHT35;55849;48.482;2.332;2023-06-22T11:41:12;23.47;79.93
68842;SHT35;55849;48.482;2.332;2023-06-22T11:44:15;23.48;79.63
68842;SHT35;55849;48.482;2.332;2023-06-22T11:47:16;23.54;79.57
68842;SHT35;55849;48.482;2.332;2023-06-22T11:50:18;23.55;78.12
68842;SHT35;55849;48.482;2.332;2023-06-22T11:53:20;23.59;78.71
68842;SHT35;55849;48.482;2.332;2023-06-22T11:56:22;23.61;78.13
68842;SHT35;55849;48.482;2.332;2023-06-22T11:59:25;23.64;77.56
68842;SHT35;55849;48.482;2.332;2023-06-22T12:02:27;23.64;77.95
68842;SHT35;55849;48.482;2.332;2023-06-22T12:05:28;23.68;79.00
68842;SHT35;55849;48.482;2.332;2023-06-22T12:08:30;23.68;77.04
68842;SHT35;55849;48.482;2.332;2023-06-22T12:11:32;23.69;78.41
68842;SHT35;55849;48.482;2.332;2023-06-22T12:14:35;23.73;77.89
68842;SHT35;55849;48.482;2.332;2023-06-22T12:17:36;23.78;78.13
68842;SHT35;55849;48.482;2.332;2023-06-22T12:20:41;23.81;77.95
68842;SHT35;55849;48.482;2.332;2023-06-22T12:23:43;23.85;77.21
68842;SHT35;55849;48.482;2.332;2023-06-22T12:26:44;23.89;78.25
68842;SHT35;55849;48.482;2.332;2023-06-22T12:29:47;23.96;78.41
68842;SHT35;55849;48.482;2.332;2023-06-22T12:32:49;24.00;78.24
68842;SHT35;55849;48.482;2.332;2023-06-22T12:35:51;24.06;76.28
68842;SHT35;55849;48.482;2.332;2023-06-22T12:38:53;24.09;76.87
68842;SHT35;55849;48.482;2.332;2023-06-22T12:41:55;24.09;76.43
68842;SHT35;55849;48.482;2.332;2023-06-22T12:44:58;24.13;77.22
68842;SHT35;55849;48.482;2.332;2023-06-22T12:48:00;24.16;77.70
68842;SHT35;55849;48.482;2.332;2023-06-22T12:51:02;24.18;77.35
68842;SHT35;55849;48.482;2.332;2023-06-22T12:54:04;24.23;76.33
68842;SHT35;55849;48.482;2.332;2023-06-22T12:57:06;24.28;78.21
68842;SHT35;55849;48.482;2.332;2023-06-22T13:00:10;24.31;78.57
68842;SHT35;55849;48.482;2.332;2023-06-22T13:03:12;24.33;76.59
68842;SHT35;55849;48.482;2.332;2023-06-22T13:06:13;24.37;76.68
68842;SHT35;55849;48.482;2.332;2023-06-22T13:09:17;24.42;76.70
68842;SHT35;55849;48.482;2.332;2023-06-22T13:12:19;24.44;76.27
68842;SHT35;55849;48.482;2.332;2023-06-22T13:15:22;24.48;76.63
68842;SHT35;55849;48.482;2.332;2023-06-22T13:18:24;24.52;75.97
68842;SHT35;55849;48.482;2.332;2023-06-22T13:21:26;24.55;76.60
68842;SHT35;55849;48.482;2.332;2023-06-22T13:24:27;24.58;76.93
68842;SHT35;55849;48.482;2.332;2023-06-22T13:27:29;24.59;75.10
68842;SHT35;55849;48.482;2.332;2023-06-22T13:30:32;24.61;75.40
68842;SHT35;55849;48.482;2.332;2023-06-22T13:33:34;24.62;75.23
68842;SHT35;55849;48.482;2.332;2023-06-22T13:36:35;24.61;74.02
68842;SHT35;55849;48.482;2.332;2023-06-22T13:39:37;24.58;75.85
68842;SHT35;55849;48.482;2.332;2023-06-22T13:42:39;24.59;76.02
68842;SHT35;55849;48.482;2.332;2023-06-22T13:45:42;24.57;75.81
68842;SHT35;55849;48.482;2.332;2023-06-22T13:48:43;24.55;75.13
68842;SHT35;55849;48.482;2.332;2023-06-22T13:51:45;24.55;76.82
68842;SHT35;55849;48.482;2.332;2023-06-22T13:54:48;24.58;75.06
68842;SHT35;55849;48.482;2.332;2023-06-22T13:57:50;24.61;75.57
68842;SHT35;55849;48.482;2.332;2023-06-22T14:00:53;24.61;74.13
68842;SHT35;55849;48.482;2.332;2023-06-22T14:03:55;24.59;75.19
68842;SHT35;55849;48.482;2.332;2023-06-22T14:06:56;24.57;76.14
68842;SHT35;55849;48.482;2.332;2023-06-22T14:10:00;24.61;75.09
68842;SHT35;55849;48.482;2.332;2023-06-22T14:13:02;24.58;75.94
68842;SHT35;55849;48.482;2.332;2023-06-22T14:16:07;24.54;76.40
68842;SHT35;55849;48.482;2.332;2023-06-22T14:19:09;24.57;77.22
68842;SHT35;55849;48.482;2.332;2023-06-22T14:22:10;24.54;74.36
68842;SHT35;55849;48.482;2.332;2023-06-22T14:25:12;24.54;75.67
68842;SHT35;55849;48.482;2.332;2023-06-22T14:28:13;24.52;76.76
68842;SHT35;55849;48.482;2.332;2023-06-22T14:31:18;24.54;75.81
68842;SHT35;55849;48.482;2.332;2023-06-22T14:34:20;24.54;74.69
68842;SHT35;55849;48.482;2.332;2023-06-22T14:37:22;24.59;76.33
68842;SHT35;55849;48.482;2.332;2023-06-22T14:40:24;24.66;75.44
68842;SHT35;55849;48.482;2.332;2023-06-22T14:43:25;24.75;74.76
68842;SHT35;55849;48.482;2.332;2023-06-22T14:46:28;24.83;73.90
68842;SHT35;55849;48.482;2.332;2023-06-22T14:49:30;24.92;75.11
68842;SHT35;55849;48.482;2.332;2023-06-22T14:52:31;25.00;73.81
68842;SHT35;55849;48.482;2.332;2023-06-22T14:55:33;25.06;72.97
68842;SHT35;55849;48.482;2.332;2023-06-22T14:58:35;25.09;73.49
68842;SHT35;55849;48.482;2.332;2023-06-22T15:01:38;25.14;73.55
68842;SHT35;55849;48.482;2.332;2023-06-22T15:04:40;25.27;75.62
68842;SHT35;55849;48.482;2.332;2023-06-22T15:07:41;25.39;73.82
68842;SHT35;55849;48.482;2.332;2023-06-22T15:10:43;25.61;73.89
68842;SHT35;55849;48.482;2.332;2023-06-22T15:13:44;25.83;73.67
68842;SHT35;55849;48.482;2.332;2023-06-22T15:16:47;26.07;74.61
68842;SHT35;55849;48.482;2.332;2023-06-22T15:19:49;26.28;72.84
68842;SHT35;55849;48.482;2.332;2023-06-22T15:22:50;26.48;71.24
68842;SHT35;55849;48.482;2.332;2023-06-22T15:25:52;26.63;71.57
68842;SHT35;55849;48.482;2.332;2023-06-22T15:28:54;26.76;71.14
68842;SHT35;55849;48.482;2.332;2023-06-22T15:31:57;26.84;71.43
68842;SHT35;55849;48.482;2.332;2023-06-22T15:34:59;26.97;73.44
68842;SHT35;55849;48.482;2.332;2023-06-22T15:38:00;27.11;71.61
68842;SHT35;55849;48.482;2.332;2023-06-22T15:41:02;27.31;69.59
68842;SHT35;55849;48.482;2.332;2023-06-22T15:44:04;27.46;69.36
68842;SHT35;55849;48.482;2.332;2023-06-22T15:47:07;27.67;70.30
68842;SHT35;55849;48.482;2.332;2023-06-22T15:50:09;27.82;71.64
68842;SHT35;55849;48.482;2.332;2023-06-22T15:53:11;27.96;69.29
68842;SHT35;55849;48.482;2.332;2023-06-22T15:56:12;28.08;71.09
68842;SHT35;55849;48.482;2.332;2023-06-22T15:59:14;28.21;69.04
68842;SHT35;55849;48.482;2.332;2023-06-22T16:02:17;28.32;65.71
68842;SHT35;55849;48.482;2.332;2023-06-22T16:05:19;28.39;68.64
68842;SHT35;55849;48.482;2.332;2023-06-22T16:08:20;28.49;66.75
68842;SHT35;55849;48.482;2.332;2023-06-22T16:11:22;28.57;64.45
68842;SHT35;55849;48.482;2.332;2023-06-22T16:14:23;28.64;65.26
68842;SHT35;55849;48.482;2.332;2023-06-22T16:17:26;28.71;65.30
68842;SHT35;55849;48.482;2.332;2023-06-22T16:20:28;28.78;63.69
68842;SHT35;55849;48.482;2.332;2023-06-22T16:23:30;28.91;68.10
68842;SHT35;55849;48.482;2.332;2023-06-22T16:26:38;28.98;66.25
68842;SHT35;55849;48.482;2.332;2023-06-22T16:29:40;28.98;66.34
68842;SHT35;55849;48.482;2.332;2023-06-22T16:32:51;28.93;67.86
68842;SHT35;55849;48.482;2.332;2023-06-22T16:35:54;28.77;65.55
68842;SHT35;55849;48.482;2.332;2023-06-22T16:38:55;28.67;68.31
68842;SHT35;55849;48.482;2.332;2023-06-22T16:41:57;28.55;68.75
68842;SHT35;55849;48.482;2.332;2023-06-22T16:44:58;28.42;68.79
68842;SHT35;55849;48.482;2.332;2023-06-22T16:48:03;28.34;69.49
68842;SHT35;55849;48.482;2.332;2023-06-22T16:51:05;28.19;69.31
68842;SHT35;55849;48.482;2.332;2023-06-22T16:54:07;28.11;68.96
68842;SHT35;55849;48.482;2.332;2023-06-22T16:57:09;28.11;70.60
68842;SHT35;55849;48.482;2.332;2023-06-22T17:00:11;28.09;67.37
68842;SHT35;55849;48.482;2.332;2023-06-22T17:03:18;28.14;67.73
68842;SHT35;55849;48.482;2.332;2023-06-22T17:06:21;28.19;65.01
68842;SHT35;55849;48.482;2.332;2023-06-22T17:09:25;28.22;61.80
68842;SHT35;55849;48.482;2.332;2023-06-22T17:12:27;28.22;65.85
68842;SHT35;55849;48.482;2.332;2023-06-22T17:15:31;28.21;62.09
68842;SHT35;55849;48.482;2.332;2023-06-22T17:18:39;28.24;66.34
68842;SHT35;55849;48.482;2.332;2023-06-22T17:21:41;28.19;65.76
68842;SHT35;55849;48.482;2.332;2023-06-22T17:24:43;28.12;67.10
68842;SHT35;55849;48.482;2.332;2023-06-22T17:27:47;28.01;67.54
68842;SHT35;55849;48.482;2.332;2023-06-22T17:31:08;27.87;66.22
68842;SHT35;55849;48.482;2.332;2023-06-22T17:34:13;27.76;67.58
68842;SHT35;55849;48.482;2.332;2023-06-22T17:37:15;27.67;68.75
68842;SHT35;55849;48.482;2.332;2023-06-22T17:40:19;27.60;67.30
68842;SHT35;55849;48.482;2.332;2023-06-22T17:43:20;27.53;68.02
68842;SHT35;55849;48.482;2.332;2023-06-22T17:46:22;27.49;67.19
68842;SHT35;55849;48.482;2.332;2023-06-22T17:49:28;27.45;69.16
68842;SHT35;55849;48.482;2.332;2023-06-22T17:52:30;27.38;69.14
68842;SHT35;55849;48.482;2.332;2023-06-22T17:55:33;27.37;66.74
68842;SHT35;55849;48.482;2.332;2023-06-22T17:58:34;27.30;69.36
68842;SHT35;55849;48.482;2.332;2023-06-22T18:01:37;27.30;67.63
68842;SHT35;55849;48.482;2.332;2023-06-22T18:04:41;27.20;67.08
68842;SHT35;55849;48.482;2.332;2023-06-22T18:07:43;27.15;69.27
68842;SHT35;55849;48.482;2.332;2023-06-22T18:10:45;27.10;65.89
68842;SHT35;55849;48.482;2.332;2023-06-22T18:13:48;27.04;70.04
68842;SHT35;55849;48.482;2.332;2023-06-22T18:16:53;27.01;68.78
68842;SHT35;55849;48.482;2.332;2023-06-22T18:19:58;26.90;66.61
68842;SHT35;55849;48.482;2.332;2023-06-22T18:23:01;26.84;67.58
68842;SHT35;55849;48.482;2.332;2023-06-22T18:26:03;26.75;69.00
68842;SHT35;55849;48.482;2.332;2023-06-22T18:29:07;26.69;69.82
68842;SHT35;55849;48.482;2.332;2023-06-22T18:32:09;26.59;71.25
68842;SHT35;55849;48.482;2.332;2023-06-22T18:35:12;26.53;71.13
68842;SHT35;55849;48.482;2.332;2023-06-22T18:38:15;26.44;70.24
68842;SHT35;55849;48.482;2.332;2023-06-22T18:41:21;26.35;71.26
68842;SHT35;55849;48.482;2.332;2023-06-22T18:44:25;26.28;71.47
68842;SHT35;55849;48.482;2.332;2023-06-22T18:47:27;26.21;71.52
68842;SHT35;55849;48.482;2.332;2023-06-22T18:50:40;26.14;70.86
68842;SHT35;55849;48.482;2.332;2023-06-22T18:53:42;26.10;70.77
68842;SHT35;55849;48.482;2.332;2023-06-22T18:56:52;26.00;69.72
68842;SHT35;55849;48.482;2.332;2023-06-22T18:59:59;25.96;72.50
68842;SHT35;55849;48.482;2.332;2023-06-22T19:03:04;25.92;71.48
68842;SHT35;55849;48.482;2.332;2023-06-22T19:06:07;25.83;70.60
68842;SHT35;55849;48.482;2.332;2023-06-22T19:09:13;25.79;70.90
68842;SHT35;55849;48.482;2.332;2023-06-22T19:12:22;25.72;70.43
68842;SHT35;55849;48.482;2.332;2023-06-22T19:15:31;25.63;71.72
68842;SHT35;55849;48.482;2.332;2023-06-22T19:18:35;25.58;72.08
68842;SHT35;55849;48.482;2.332;2023-06-22T19:21:38;25.52;72.09
68842;SHT35;55849;48.482;2.332;2023-06-22T19:24:47;25.48;71.90
68842;SHT35;55849;48.482;2.332;2023-06-22T19:27:50;25.39;72.15
68842;SHT35;55849;48.482;2.332;2023-06-22T19:30:55;25.31;71.64
68842;SHT35;55849;48.482;2.332;2023-06-22T19:34:00;25.24;71.76
68842;SHT35;55849;48.482;2.332;2023-06-22T19:37:13;25.16;71.53
68842;SHT35;55849;48.482;2.332;2023-06-22T19:40:16;25.06;71.85
68842;SHT35;55849;48.482;2.332;2023-06-22T19:43:18;24.96;71.53
68842;SHT35;55849;48.482;2.332;2023-06-22T19:46:26;24.89;71.76
68842;SHT35;55849;48.482;2.332;2023-06-22T19:49:28;24.82;71.62
68842;SHT35;55849;48.482;2.332;2023-06-22T19:52:35;24.71;72.03
68842;SHT35;55849;48.482;2.332;2023-06-22T19:55:38;24.64;71.70
68842;SHT35;55849;48.482;2.332;2023-06-22T19:58:40;24.58;71.65
68842;SHT35;55849;48.482;2.332;2023-06-22T20:01:43;24.47;72.60
68842;SHT35;55849;48.482;2.332;2023-06-22T20:04:45;24.41;71.81
68842;SHT35;55849;48.482;2.332;2023-06-22T20:07:48;24.34;72.10
68842;SHT35;55849;48.482;2.332;2023-06-22T20:10:55;24.27;73.36
68842;SHT35;55849;48.482;2.332;2023-06-22T20:13:59;24.20;72.34
68842;SHT35;55849;48.482;2.332;2023-06-22T20:17:04;24.16;71.98
68842;SHT35;55849;48.482;2.332;2023-06-22T20:20:18;24.05;71.04
68842;SHT35;55849;48.482;2.332;2023-06-22T20:23:22;23.98;73.76
68842;SHT35;55849;48.482;2.332;2023-06-22T20:26:23;23.92;71.98
68842;SHT35;55849;48.482;2.332;2023-06-22T20:29:26;23.85;73.14
68842;SHT35;55849;48.482;2.332;2023-06-22T20:32:31;23.79;71.16
68842;SHT35;55849;48.482;2.332;2023-06-22T20:35:33;23.71;70.92
68842;SHT35;55849;48.482;2.332;2023-06-22T20:38:37;23.64;71.82
68842;SHT35;55849;48.482;2.332;2023-06-22T20:41:39;23.54;70.71
68842;SHT35;55849;48.482;2.332;2023-06-22T20:44:40;23.46;70.48
68842;SHT35;55849;48.482;2.332;2023-06-22T20:47:45;23.36;70.00
68842;SHT35;55849;48.482;2.332;2023-06-22T20:50:47;23.28;69.53
68842;SHT35;55849;48.482;2.332;2023-06-22T20:53:51;23.19;69.76
68842;SHT35;55849;48.482;2.332;2023-06-22T20:56:52;23.07;69.98
68842;SHT35;55849;48.482;2.332;2023-06-22T20:59:54;23.00;69.99
68842;SHT35;55849;48.482;2.332;2023-06-22T21:02:55;22.95;69.95
68842;SHT35;55849;48.482;2.332;2023-06-22T21:05:57;22.85;70.00
68842;SHT35;55849;48.482;2.332;2023-06-22T21:09:00;22.81;70.73
68842;SHT35;55849;48.482;2.332;2023-06-22T21:12:01;22.73;70.83
68842;SHT35;55849;48.482;2.332;2023-06-22T21:15:04;22.69;71.61
68842;SHT35;55849;48.482;2.332;2023-06-22T21:18:06;22.61;70.75
68842;SHT35;55849;48.482;2.332;2023-06-22T21:21:07;22.57;70.55
68842;SHT35;55849;48.482;2.332;2023-06-22T21:24:11;22.51;70.64
68842;SHT35;55849;48.482;2.332;2023-06-22T21:27:12;22.44;70.67
68842;SHT35;55849;48.482;2.332;2023-06-22T21:30:14;22.41;69.94
68842;SHT35;55849;48.482;2.332;2023-06-22T21:33:15;22.37;71.06
68842;SHT35;55849;48.482;2.332;2023-06-22T21:36:17;22.33;70.19
68842;SHT35;55849;48.482;2.332;2023-06-22T21:39:20;22.23;70.75
68842;SHT35;55849;48.482;2.332;2023-06-22T21:42:22;22.20;70.76
68842;SHT35;55849;48.482;2.332;2023-06-22T21:45:27;22.14;70.41
68842;SHT35;55849;48.482;2.332;2023-06-22T21:48:28;22.08;70.33
68842;SHT35;55849;48.482;2.332;2023-06-22T21:51:30;22.03;70.57
68842;SHT35;55849;48.482;2.332;2023-06-22T21:54:34;22.01;70.90
68842;SHT35;55849;48.482;2.332;2023-06-22T21:57:35;21.96;71.65
68842;SHT35;55849;48.482;2.332;2023-06-22T22:00:37;21.92;70.89
68842;SHT35;55849;48.482;2.332;2023-06-22T22:03:38;21.89;71.64
68842;SHT35;55849;48.482;2.332;2023-06-22T22:06:43;21.85;71.79
68842;SHT35;55849;48.482;2.332;2023-06-22T22:09:51;21.85;71.72
68842;SHT35;55849;48.482;2.332;2023-06-22T22:12:53;21.81;71.18
68842;SHT35;55849;48.482;2.332;2023-06-22T22:15:55;21.77;71.61
68842;SHT35;55849;48.482;2.332;2023-06-22T22:18:57;21.68;70.86
68842;SHT35;55849;48.482;2.332;2023-06-22T22:21:59;21.62;71.45
68842;SHT35;55849;48.482;2.332;2023-06-22T22:25:02;21.61;70.75
68842;SHT35;55849;48.482;2.332;2023-06-22T22:28:04;21.57;71.76
68842;SHT35;55849;48.482;2.332;2023-06-22T22:31:05;21.53;71.96
68842;SHT35;55849;48.482;2.332;2023-06-22T22:34:07;21.49;71.55
68842;SHT35;55849;48.482;2.332;2023-06-22T22:37:10;21.46;71.13
68842;SHT35;55849;48.482;2.332;2023-06-22T22:40:13;21.41;71.24
68842;SHT35;55849;48.482;2.332;2023-06-22T22:43:15;21.37;70.72
68842;SHT35;55849;48.482;2.332;2023-06-22T22:46:16;21.36;71.37
68842;SHT35;55849;48.482;2.332;2023-06-22T22:49:18;21.30;71.82
68842;SHT35;55849;48.482;2.332;2023-06-22T22:52:20;21.27;70.86
68842;SHT35;55849;48.482;2.332;2023-06-22T22:55:23;21.22;71.03
68842;SHT35;55849;48.482;2.332;2023-06-22T22:58:24;21.19;70.89
68842;SHT35;55849;48.482;2.332;2023-06-22T23:01:27;21.15;70.95
